sensor_id;sensor_type;location;lat;lon;timestamp;pressure;altitude;pressure_sealevel;temperature;humidity
28312;BME280;15572;48.810;9.148;2023-02-13T00:00:58;100070.38;;;0.23;100.00
28312;BME280;15572;48.810;9.148;2023-02-13T00:05:54;100081.50;;;0.15;100.00
28312;BME280;15572;48.810;9.148;2023-02-13T00:10:51;100075.66;;;0.09;100.00
28312;BME280;15572;48.810;9.148;2023-02-13T00:15:55;100077.09;;;-0.02;100.00
28312;BME280;15572;48.810;9.148;2023-02-13T00:20:59;100082.75;;;-0.08;100.00
28312;BME280;15572;48.810;9.148;2023-02-13T00:25:56;100071.19;;;-0.07;100.00
28312;BME280;15572;48.810;9.148;2023-02-13T00:31:01;100071.31;;;-0.10;100.00
28312;BME280;15572;48.810;9.148;2023-02-13T00:36:03;100066.94;;;-0.11;100.00
28312;BME280;15572;48.810;9.148;2023-02-13T00:41:00;100069.00;;;-0.16;100.00
28312;BME280;15572;48.810;9.148;2023-02-13T00:45:58;100061.44;;;-0.23;100.00
28312;BME280;15572;48.810;9.148;2023-02-13T00:50:54;100071.25;;;-0.24;100.00
28312;BME280;15572;48.810;9.148;2023-02-13T00:55:51;100072.50;;;-0.31;100.00
28312;BME280;15572;48.810;9.148;2023-02-13T01:00:48;100074.03;;;-0.43;100.00
28312;BME280;15572;48.810;9.148;2023-02-13T01:05:48;100072.72;;;-0.51;100.00
28312;BME280;15572;48.810;9.148;2023-02-13T01:10:46;100065.06;;;-0.57;100.00
28312;BME280;15572;48.810;9.148;2023-02-13T01:15:43;100066.78;;;-0.56;100.00
28312;BME280;15572;48.810;9.148;2023-02-13T01:20:40;100064.75;;;-0.51;100.00
28312;BME280;15572;48.810;9.148;2023-02-13T01:25:40;100065.84;;;-0.55;100.00
28312;BME280;15572;48.810;9.148;2023-02-13T01:30:37;100060.69;;;-0.58;100.00
28312;BME280;15572;48.810;9.148;2023-02-13T01:35:33;100054.00;;;-0.65;100.00
28312;BME280;15572;48.810;9.148;2023-02-13T01:40:30;100052.25;;;-0.66;100.00
28312;BME280;15572;48.810;9.148;2023-02-13T01:45:29;100056.97;;;-0.71;100.00
28312;BME280;15572;48.810;9.148;2023-02-13T01:50:30;100056.09;;;-0.72;100.00
28312;BME280;15572;48.810;9.148;2023-02-13T01:55:28;100056.34;;;-0.76;100.00
28312;BME280;15572;48.810;9.148;2023-02-13T02:00:27;100051.03;;;-0.76;100.00
28312;BME280;15572;48.810;9.148;2023-02-13T02:05:26;100051.34;;;-0.82;100.00
28312;BME280;15572;48.810;9.148;2023-02-13T02:10:24;100049.88;;;-0.88;100.00
28312;BME280;15572;48.810;9.148;2023-02-13T02:15:20;100054.19;;;-0.86;100.00
28312;BME280;15572;48.810;9.148;2023-02-13T02:20:25;100053.94;;;-0.81;100.00
28312;BME280;15572;48.810;9.148;2023-02-13T02:36:44;100044.81;;;-1.10;100.00
28312;BME280;15572;48.810;9.148;2023-02-13T02:41:53;100051.69;;;-1.06;100.00
28312;BME280;15572;48.810;9.148;2023-02-13T02:47:07;100041.75;;;-1.02;100.00
28312;BME280;15572;48.810;9.148;2023-02-13T02:52:28;100043.38;;;-1.00;100.00
28312;BME280;15572;48.810;9.148;2023-02-13T02:57:29;100046.97;;;-1.01;100.00
28312;BME280;15572;48.810;9.148;2023-02-13T03:02:46;100054.03;;;-1.00;100.00
28312;BME280;15572;48.810;9.148;2023-02-13T03:08:03;100055.81;;;-1.00;100.00
28312;BME280;15572;48.810;9.148;2023-02-13T03:13:01;100049.00;;;-1.06;100.00
28312;BME280;15572;48.810;9.148;2023-02-13T03:18:16;100055.38;;;-1.08;100.00
28312;BME280;15572;48.810;9.148;2023-02-13T03:23:40;100049.81;;;-1.21;100.00
28312;BME280;15572;48.810;9.148;2023-02-13T03:28:49;100056.38;;;-1.28;100.00
28312;BME280;15572;48.810;9.148;2023-02-13T03:34:06;100057.41;;;-1.31;100.00
28312;BME280;15572;48.810;9.148;2023-02-13T03:39:08;100061.53;;;-1.25;100.00
28312;BME280;15572;48.810;9.148;2023-02-13T03:44:11;100054.66;;;-1.29;100.00
28312;BME280;15572;48.810;9.148;2023-02-13T03:49:17;100059.03;;;-1.28;100.00
28312;BME280;15572;48.810;9.148;2023-02-13T03:54:39;100062.16;;;-1.37;100.00
28312;BME280;15572;48.810;9.148;2023-02-13T03:59:56;100067.13;;;-1.48;100.00
28312;BME280;15572;48.810;9.148;2023-02-13T04:04:58;100081.91;;;-1.43;100.00
28312;BME280;15572;48.810;9.148;2023-02-13T04:10:00;100081.84;;;-1.41;100.00
28312;BME280;15572;48.810;9.148;2023-02-13T04:15:02;100088.25;;;-1.45;100.00
28312;BME280;15572;48.810;9.148;2023-02-13T04:20:01;100087.22;;;-1.43;100.00
28312;BME280;15572;48.810;9.148;2023-02-13T04:25:00;100090.81;;;-1.44;100.00
28312;BME280;15572;48.810;9.148;2023-02-13T04:29:56;100084.97;;;-1.50;100.00
28312;BME280;15572;48.810;9.148;2023-02-13T04:34:53;100088.69;;;-1.54;100.00
28312;BME280;15572;48.810;9.148;2023-02-13T04:39:49;100086.91;;;-1.54;100.00
28312;BME280;15572;48.810;9.148;2023-02-13T04:44:47;100089.84;;;-1.60;100.00
28312;BME280;15572;48.810;9.148;2023-02-13T04:49:43;100092.44;;;-1.58;100.00
28312;BME280;15572;48.810;9.148;2023-02-13T04:54:40;100098.78;;;-1.61;100.00
28312;BME280;15572;48.810;9.148;2023-02-13T04:59:36;100106.25;;;-1.69;100.00
28312;BME280;15572;48.810;9.148;2023-02-13T05:04:34;100105.38;;;-1.70;100.00
28312;BME280;15572;48.810;9.148;2023-02-13T05:09:31;100106.25;;;-1.69;100.00
28312;BME280;15572;48.810;9.148;2023-02-13T05:14:28;100100.31;;;-1.74;100.00
28312;BME280;15572;48.810;9.148;2023-02-13T05:19:24;100103.25;;;-1.80;100.00
28312;BME280;15572;48.810;9.148;2023-02-13T05:24:22;100099.88;;;-1.84;100.00
28312;BME280;15572;48.810;9.148;2023-02-13T05:29:19;100103.25;;;-1.80;100.00
28312;BME280;15572;48.810;9.148;2023-02-13T05:34:17;100106.69;;;-1.78;100.00
28312;BME280;15572;48.810;9.148;2023-02-13T05:39:14;100105.69;;;-1.76;100.00
28312;BME280;15572;48.810;9.148;2023-02-13T05:44:12;100098.78;;;-1.80;100.00
28312;BME280;15572;48.810;9.148;2023-02-13T05:49:11;100100.81;;;-1.85;100.00
28312;BME280;15572;48.810;9.148;2023-02-13T05:54:07;100098.44;;;-1.91;100.00
28312;BME280;15572;48.810;9.148;2023-02-13T05:59:04;100097.69;;;-1.93;100.00
28312;BME280;15572;48.810;9.148;2023-02-13T06:04:02;100092.50;;;-1.96;100.00
28312;BME280;15572;48.810;9.148;2023-02-13T06:08:59;100084.59;;;-1.97;100.00
28312;BME280;15572;48.810;9.148;2023-02-13T06:13:55;100093.34;;;-1.95;100.00
28312;BME280;15572;48.810;9.148;2023-02-13T06:18:51;100090.53;;;-1.92;100.00
28312;BME280;15572;48.810;9.148;2023-02-13T06:23:49;100099.25;;;-1.89;100.00
28312;BME280;15572;48.810;9.148;2023-02-13T06:28:46;100094.56;;;-1.84;100.00
28312;BME280;15572;48.810;9.148;2023-02-13T06:33:43;100096.31;;;-1.83;100.00
28312;BME280;15572;48.810;9.148;2023-02-13T06:38:40;100098.09;;;-1.83;100.00
28312;BME280;15572;48.810;9.148;2023-02-13T06:43:38;100104.25;;;-1.83;100.00
28312;BME280;15572;48.810;9.148;2023-02-13T06:48:35;100100.47;;;-1.77;100.00
28312;BME280;15572;48.810;9.148;2023-02-13T06:53:31;100103.75;;;-1.72;100.00
28312;BME280;15572;48.810;9.148;2023-02-13T06:58:28;100107.81;;;-1.65;100.00
28312;BME280;15572;48.810;9.148;2023-02-13T07:03:25;100110.28;;;-1.60;100.00
28312;BME280;15572;48.810;9.148;2023-02-13T07:08:22;100110.13;;;-1.57;100.00
28312;BME280;15572;48.810;9.148;2023-02-13T07:13:18;100116.06;;;-1.52;100.00
28312;BME280;15572;48.810;9.148;2023-02-13T07:18:15;100109.53;;;-1.45;100.00
28312;BME280;15572;48.810;9.148;2023-02-13T07:23:13;100123.22;;;-1.36;100.00
28312;BME280;15572;48.810;9.148;2023-02-13T07:28:09;100118.34;;;-1.28;100.00
28312;BME280;15572;48.810;9.148;2023-02-13T07:33:05;100118.16;;;-1.23;100.00
28312;BME280;15572;48.810;9.148;2023-02-13T07:38:02;100129.25;;;-1.15;100.00
28312;BME280;15572;48.810;9.148;2023-02-13T07:43:00;100131.63;;;-1.09;100.00
28312;BME280;15572;48.810;9.148;2023-02-13T07:47:57;100129.41;;;-1.01;100.00
28312;BME280;15572;48.810;9.148;2023-02-13T07:52:53;100132.25;;;-0.87;100.00
28312;BME280;15572;48.810;9.148;2023-02-13T07:57:50;100127.88;;;-0.70;100.00
28312;BME280;15572;48.810;9.148;2023-02-13T08:02:49;100122.75;;;-0.58;100.00
28312;BME280;15572;48.810;9.148;2023-02-13T08:07:45;100116.84;;;-0.47;100.00
28312;BME280;15572;48.810;9.148;2023-02-13T08:12:41;100125.31;;;-0.39;100.00
28312;BME280;15572;48.810;9.148;2023-02-13T08:17:38;100126.47;;;-0.27;100.00
28312;BME280;15572;48.810;9.148;2023-02-13T08:22:37;100125.72;;;-0.14;100.00
28312;BME280;15572;48.810;9.148;2023-02-13T08:27:33;100126.59;;;0.03;100.00
28312;BME280;15572;48.810;9.148;2023-02-13T08:32:30;100123.88;;;0.20;100.00
28312;BME280;15572;48.810;9.148;2023-02-13T08:37:26;100120.94;;;0.40;100.00
28312;BME280;15572;48.810;9.148;2023-02-13T08:42:24;100102.84;;;0.61;100.00
28312;BME280;15572;48.810;9.148;2023-02-13T08:47:21;100100.97;;;0.93;100.00
28312;BME280;15572;48.810;9.148;2023-02-13T08:52:17;100103.53;;;1.24;100.00
28312;BME280;15572;48.810;9.148;2023-02-13T08:57:14;100095.28;;;1.71;100.00
28312;BME280;15572;48.810;9.148;2023-02-13T09:02:11;100102.28;;;2.02;100.00
28312;BME280;15572;48.810;9.148;2023-02-13T09:07:08;100112.72;;;2.33;100.00
28312;BME280;15572;48.810;9.148;2023-02-13T09:12:05;100112.78;;;2.46;100.00
28312;BME280;15572;48.810;9.148;2023-02-13T09:17:01;100109.00;;;2.63;100.00
28312;BME280;15572;48.810;9.148;2023-02-13T09:21:59;100109.72;;;2.79;100.00
28312;BME280;15572;48.810;9.148;2023-02-13T09:26:56;100106.59;;;3.12;100.00
28312;BME280;15572;48.810;9.148;2023-02-13T09:31:52;100107.41;;;3.39;100.00
28312;BME280;15572;48.810;9.148;2023-02-13T09:36:50;100110.22;;;3.63;100.00
28312;BME280;15572;48.810;9.148;2023-02-13T09:41:50;100112.53;;;3.80;100.00
28312;BME280;15572;48.810;9.148;2023-02-13T09:46:48;100123.47;;;4.02;100.00
28312;BME280;15572;48.810;9.148;2023-02-13T09:51:48;100123.03;;;4.21;100.00
28312;BME280;15572;48.810;9.148;2023-02-13T09:56:54;100122.03;;;4.35;100.00
28312;BME280;15572;48.810;9.148;2023-02-13T10:01:59;100123.91;;;4.45;100.00
28312;BME280;15572;48.810;9.148;2023-02-13T10:07:09;100119.84;;;4.52;100.00
28312;BME280;15572;48.810;9.148;2023-02-13T10:12:23;100121.03;;;4.72;100.00
28312;BME280;15572;48.810;9.148;2023-02-13T10:17:23;100122.75;;;4.97;100.00
28312;BME280;15572;48.810;9.148;2023-02-13T10:22:25;100117.16;;;5.00;100.00
28312;BME280;15572;48.810;9.148;2023-02-13T10:27:27;100116.81;;;5.04;100.00
28312;BME280;15572;48.810;9.148;2023-02-13T10:32:30;100110.38;;;5.07;100.00
28312;BME280;15572;48.810;9.148;2023-02-13T10:37:30;100107.34;;;5.12;100.00
28312;BME280;15572;48.810;9.148;2023-02-13T10:42:35;100100.44;;;5.31;100.00
28312;BME280;15572;48.810;9.148;2023-02-13T10:47:46;100102.66;;;5.37;100.00
28312;BME280;15572;48.810;9.148;2023-02-13T10:52:51;100090.59;;;5.43;100.00
28312;BME280;15572;48.810;9.148;2023-02-13T11:03:16;100084.88;;;5.70;100.00
28312;BME280;15572;48.810;9.148;2023-02-13T11:08:17;100072.22;;;5.94;100.00
28312;BME280;15572;48.810;9.148;2023-02-13T11:13:18;100073.44;;;6.23;100.00
28312;BME280;15572;48.810;9.148;2023-02-13T11:18:18;100070.63;;;6.68;100.00
28312;BME280;15572;48.810;9.148;2023-02-13T11:28:36;100071.50;;;7.83;94.01
28312;BME280;15572;48.810;9.148;2023-02-13T11:33:33;100070.88;;;8.31;92.25
28312;BME280;15572;48.810;9.148;2023-02-13T11:38:30;100065.44;;;8.71;87.82
28312;BME280;15572;48.810;9.148;2023-02-13T11:43:29;100067.44;;;8.88;85.07
28312;BME280;15572;48.810;9.148;2023-02-13T11:48:30;100056.66;;;9.17;82.10
28312;BME280;15572;48.810;9.148;2023-02-13T11:53:29;100048.50;;;9.55;82.18
28312;BME280;15572;48.810;9.148;2023-02-13T11:58:27;100048.13;;;9.78;77.13
28312;BME280;15572;48.810;9.148;2023-02-13T12:03:27;100042.38;;;10.00;76.87
28312;BME280;15572;48.810;9.148;2023-02-13T12:08:25;100051.28;;;10.10;74.66
28312;BME280;15572;48.810;9.148;2023-02-13T12:13:26;100055.22;;;9.98;71.68
28312;BME280;15572;48.810;9.148;2023-02-13T12:18:30;100048.13;;;9.87;71.53
28312;BME280;15572;48.810;9.148;2023-02-13T12:23:38;100048.91;;;10.07;70.37
28312;BME280;15572;48.810;9.148;2023-02-13T12:28:46;100044.94;;;10.38;69.00
28312;BME280;15572;48.810;9.148;2023-02-13T12:33:58;100041.94;;;10.59;67.83
28312;BME280;15572;48.810;9.148;2023-02-13T12:39:12;100040.88;;;10.70;65.54
28312;BME280;15572;48.810;9.148;2023-02-13T12:44:47;100040.19;;;10.85;63.96
28312;BME280;15572;48.810;9.148;2023-02-13T12:50:10;100030.22;;;10.86;63.24
28312;BME280;15572;48.810;9.148;2023-02-13T12:55:34;100021.94;;;11.05;63.66
28312;BME280;15572;48.810;9.148;2023-02-13T13:00:39;100027.88;;;11.26;61.37
28312;BME280;15572;48.810;9.148;2023-02-13T13:05:50;100022.97;;;11.48;60.97
28312;BME280;15572;48.810;9.148;2023-02-13T13:11:08;100016.06;;;11.53;61.14
28312;BME280;15572;48.810;9.148;2023-02-13T13:16:11;100007.97;;;11.61;60.41
28312;BME280;15572;48.810;9.148;2023-02-13T13:21:16;100012.88;;;11.84;59.79
28312;BME280;15572;48.810;9.148;2023-02-13T13:26:20;100010.63;;;12.13;57.83
28312;BME280;15572;48.810;9.148;2023-02-13T13:31:21;100012.31;;;12.06;57.75
28312;BME280;15572;48.810;9.148;2023-02-13T13:36:38;100006.66;;;12.33;56.83
28312;BME280;15572;48.810;9.148;2023-02-13T13:41:42;100005.06;;;12.64;57.48
28312;BME280;15572;48.810;9.148;2023-02-13T13:46:49;100001.41;;;13.14;56.00
28312;BME280;15572;48.810;9.148;2023-02-13T13:51:48;100001.75;;;13.27;55.02
28312;BME280;15572;48.810;9.148;2023-02-13T13:57:05;99988.13;;;13.60;52.74
28312;BME280;15572;48.810;9.148;2023-02-13T14:02:38;99986.91;;;13.62;52.95
28312;BME280;15572;48.810;9.148;2023-02-13T14:07:37;99988.09;;;13.68;52.94
28312;BME280;15572;48.810;9.148;2023-02-13T14:12:45;99998.47;;;13.64;51.11
28312;BME280;15572;48.810;9.148;2023-02-13T14:17:49;99992.53;;;13.61;52.27
28312;BME280;15572;48.810;9.148;2023-02-13T14:22:47;99994.25;;;13.45;51.94
28312;BME280;15572;48.810;9.148;2023-02-13T14:27:54;99993.75;;;13.18;53.22
28312;BME280;15572;48.810;9.148;2023-02-13T14:32:51;99993.72;;;13.01;53.22
28312;BME280;15572;48.810;9.148;2023-02-13T14:37:50;99995.38;;;12.78;53.31
28312;BME280;15572;48.810;9.148;2023-02-13T14:42:52;99989.38;;;12.42;55.00
28312;BME280;15572;48.810;9.148;2023-02-13T14:47:52;99992.75;;;12.36;55.03
28312;BME280;15572;48.810;9.148;2023-02-13T14:52:51;99987.66;;;12.41;55.15
28312;BME280;15572;48.810;9.148;2023-02-13T14:57:51;99985.94;;;12.32;55.24
28312;BME280;15572;48.810;9.148;2023-02-13T15:02:52;99982.22;;;12.41;54.12
28312;BME280;15572;48.810;9.148;2023-02-13T15:08:00;99975.25;;;12.31;54.44
28312;BME280;15572;48.810;9.148;2023-02-13T15:13:00;99973.13;;;12.08;56.10
28312;BME280;15572;48.810;9.148;2023-02-13T15:17:59;99966.75;;;11.92;55.99
28312;BME280;15572;48.810;9.148;2023-02-13T15:22:57;99964.94;;;11.40;57.15
28312;BME280;15572;48.810;9.148;2023-02-13T15:27:54;99962.59;;;11.02;58.70
28312;BME280;15572;48.810;9.148;2023-02-13T15:32:56;99952.31;;;10.52;60.70
28312;BME280;15572;48.810;9.148;2023-02-13T15:37:53;99958.13;;;10.12;62.25
28312;BME280;15572;48.810;9.148;2023-02-13T15:42:50;99967.84;;;9.78;63.24
28312;BME280;15572;48.810;9.148;2023-02-13T15:47:47;99963.97;;;9.53;64.06
28312;BME280;15572;48.810;9.148;2023-02-13T15:52:46;99964.03;;;9.34;64.59
28312;BME280;15572;48.810;9.148;2023-02-13T15:57:43;99966.50;;;9.18;65.19
28312;BME280;15572;48.810;9.148;2023-02-13T16:02:42;99968.06;;;9.01;65.17
28312;BME280;15572;48.810;9.148;2023-02-13T16:07:48;99970.66;;;8.74;67.40
28312;BME280;15572;48.810;9.148;2023-02-13T16:12:46;99973.34;;;8.55;68.15
28312;BME280;15572;48.810;9.148;2023-02-13T16:17:44;99970.06;;;8.32;70.32
28312;BME280;15572;48.810;9.148;2023-02-13T16:22:43;99974.22;;;8.06;71.35
28312;BME280;15572;48.810;9.148;2023-02-13T16:27:43;99961.06;;;7.82;72.67
28312;BME280;15572;48.810;9.148;2023-02-13T16:32:41;99967.38;;;7.61;73.90
28312;BME280;15572;48.810;9.148;2023-02-13T16:37:49;99962.28;;;7.38;75.08
28312;BME280;15572;48.810;9.148;2023-02-13T16:42:47;99972.13;;;7.18;77.40
28312;BME280;15572;48.810;9.148;2023-02-13T16:47:44;99973.09;;;6.96;79.06
28312;BME280;15572;48.810;9.148;2023-02-13T16:52:41;99981.75;;;6.79;80.98
28312;BME280;15572;48.810;9.148;2023-02-13T16:57:38;99981.50;;;6.61;81.77
28312;BME280;15572;48.810;9.148;2023-02-13T17:02:37;99988.28;;;6.45;82.49
28312;BME280;15572;48.810;9.148;2023-02-13T17:07:36;99983.69;;;6.24;83.23
28312;BME280;15572;48.810;9.148;2023-02-13T17:12:36;99988.47;;;6.10;84.83
28312;BME280;15572;48.810;9.148;2023-02-13T17:17:33;99987.78;;;5.97;85.88
28312;BME280;15572;48.810;9.148;2023-02-13T17:22:36;100008.78;;;5.80;87.12
28312;BME280;15572;48.810;9.148;2023-02-13T17:27:33;100011.72;;;5.66;87.41
28312;BME280;15572;48.810;9.148;2023-02-13T17:32:30;100013.53;;;5.55;88.74
28312;BME280;15572;48.810;9.148;2023-02-13T17:37:26;100020.34;;;5.36;89.82
28312;BME280;15572;48.810;9.148;2023-02-13T17:42:27;100014.34;;;5.22;91.01
28312;BME280;15572;48.810;9.148;2023-02-13T17:47:24;100013.56;;;5.08;92.63
28312;BME280;15572;48.810;9.148;2023-02-13T17:52:24;100012.34;;;5.01;93.43
28312;BME280;15572;48.810;9.148;2023-02-13T17:57:21;100022.19;;;4.90;93.89
28312;BME280;15572;48.810;9.148;2023-02-13T18:02:22;100018.47;;;4.69;95.83
28312;BME280;15572;48.810;9.148;2023-02-13T18:07:21;100021.31;;;4.54;96.89
28312;BME280;15572;48.810;9.148;2023-02-13T18:12:20;100025.03;;;4.41;97.68
28312;BME280;15572;48.810;9.148;2023-02-13T18:17:17;100033.97;;;4.29;98.26
28312;BME280;15572;48.810;9.148;2023-02-13T18:22:15;100032.72;;;4.21;98.77
28312;BME280;15572;48.810;9.148;2023-02-13T18:27:11;100041.22;;;4.15;100.00
28312;BME280;15572;48.810;9.148;2023-02-13T18:32:09;100043.81;;;4.04;100.00
28312;BME280;15572;48.810;9.148;2023-02-13T18:37:07;100037.84;;;3.88;100.00
28312;BME280;15572;48.810;9.148;2023-02-13T18:42:05;100040.00;;;3.70;100.00
28312;BME280;15572;48.810;9.148;2023-02-13T18:47:02;100042.78;;;3.69;100.00
28312;BME280;15572;48.810;9.148;2023-02-13T18:51:58;100043.34;;;3.61;100.00
28312;BME280;15572;48.810;9.148;2023-02-13T18:56:55;100050.31;;;3.51;100.00
28312;BME280;15572;48.810;9.148;2023-02-13T19:01:53;100044.09;;;3.38;100.00
28312;BME280;15572;48.810;9.148;2023-02-13T19:06:50;100046.78;;;3.25;100.00
28312;BME280;15572;48.810;9.148;2023-02-13T19:11:46;100048.56;;;3.12;100.00
28312;BME280;15572;48.810;9.148;2023-02-13T19:16:43;100046.94;;;2.97;100.00
28312;BME280;15572;48.810;9.148;2023-02-13T19:21:41;100049.06;;;2.92;100.00
28312;BME280;15572;48.810;9.148;2023-02-13T19:26:37;100050.03;;;2.91;100.00
28312;BME280;15572;48.810;9.148;2023-02-13T19:31:33;100050.66;;;2.82;100.00
28312;BME280;15572;48.810;9.148;2023-02-13T19:36:30;100050.53;;;2.71;100.00
28312;BME280;15572;48.810;9.148;2023-02-13T19:41:29;100052.09;;;2.61;100.00
28312;BME280;15572;48.810;9.148;2023-02-13T19:46:28;100043.16;;;2.47;100.00
28312;BME280;15572;48.810;9.148;2023-02-13T19:51:27;100038.44;;;2.38;100.00
28312;BME280;15572;48.810;9.148;2023-02-13T19:56:24;100044.06;;;2.34;100.00
28312;BME280;15572;48.810;9.148;2023-02-13T20:01:24;100047.69;;;2.33;100.00
28312;BME280;15572;48.810;9.148;2023-02-13T20:06:22;100048.41;;;2.22;100.00
28312;BME280;15572;48.810;9.148;2023-02-13T20:11:20;100033.72;;;2.15;100.00
28312;BME280;15572;48.810;9.148;2023-02-13T20:16:16;100024.41;;;2.08;100.00
28312;BME280;15572;48.810;9.148;2023-02-13T20:21:16;100032.69;;;2.03;100.00
28312;BME280;15572;48.810;9.148;2023-02-13T20:26:14;100034.91;;;1.97;100.00
28312;BME280;15572;48.810;9.148;2023-02-13T20:31:12;100039.88;;;1.89;100.00
28312;BME280;15572;48.810;9.148;2023-02-13T20:36:09;100032.06;;;1.86;100.00
28312;BME280;15572;48.810;9.148;2023-02-13T20:41:09;100037.41;;;1.86;100.00
28312;BME280;15572;48.810;9.148;2023-02-13T20:46:06;100040.75;;;1.75;100.00
28312;BME280;15572;48.810;9.148;2023-02-13T20:51:06;100036.28;;;1.61;100.00
28312;BME280;15572;48.810;9.148;2023-02-13T20:56:05;100046.75;;;1.50;100.00
28312;BME280;15572;48.810;9.148;2023-02-13T21:01:09;100043.22;;;1.36;100.00
28312;BME280;15572;48.810;9.148;2023-02-13T21:06:07;100026.28;;;1.22;100.00
28312;BME280;15572;48.810;9.148;2023-02-13T21:11:06;100017.00;;;1.14;100.00
28312;BME280;15572;48.810;9.148;2023-02-13T21:16:06;100018.22;;;1.08;100.00
28312;BME280;15572;48.810;9.148;2023-02-13T21:21:04;100015.06;;;1.02;100.00
28312;BME280;15572;48.810;9.148;2023-02-13T21:26:01;100022.50;;;0.97;100.00
28312;BME280;15572;48.810;9.148;2023-02-13T21:31:05;100014.31;;;1.00;100.00
28312;BME280;15572;48.810;9.148;2023-02-13T21:36:03;100007.94;;;1.02;100.00
28312;BME280;15572;48.810;9.148;2023-02-13T21:41:04;100012.78;;;0.96;100.00
28312;BME280;15572;48.810;9.148;2023-02-13T21:46:06;100016.28;;;0.82;100.00
28312;BME280;15572;48.810;9.148;2023-02-13T21:51:07;100008.56;;;0.77;100.00
28312;BME280;15572;48.810;9.148;2023-02-13T21:56:05;100005.31;;;0.72;100.00
28312;BME280;15572;48.810;9.148;2023-02-13T22:01:10;99997.31;;;0.72;100.00
28312;BME280;15572;48.810;9.148;2023-02-13T22:06:07;99997.09;;;0.61;100.00
28312;BME280;15572;48.810;9.148;2023-02-13T22:11:05;99996.09;;;0.48;100.00
28312;BME280;15572;48.810;9.148;2023-02-13T22:16:04;100008.66;;;0.46;100.00
28312;BME280;15572;48.810;9.148;2023-02-13T22:21:07;100002.72;;;0.41;100.00
28312;BME280;15572;48.810;9.148;2023-02-13T22:26:04;100007.34;;;0.37;100.00
28312;BME280;15572;48.810;9.148;2023-02-13T22:31:06;100010.88;;;0.38;100.00
28312;BME280;15572;48.810;9.148;2023-02-13T22:36:03;100016.13;;;0.39;100.00
28312;BME280;15572;48.810;9.148;2023-02-13T22:41:05;100009.19;;;0.37;100.00
28312;BME280;15572;48.810;9.148;2023-02-13T22:46:03;100017.63;;;0.29;100.00
28312;BME280;15572;48.810;9.148;2023-02-13T22:51:01;100015.97;;;0.27;100.00
28312;BME280;15572;48.810;9.148;2023-02-13T22:55:58;100008.16;;;0.24;100.00
28312;BME280;15572;48.810;9.148;2023-02-13T23:00:56;100013.56;;;0.22;100.00
28312;BME280;15572;48.810;9.148;2023-02-13T23:05:52;100008.38;;;0.21;100.00
28312;BME280;15572;48.810;9.148;2023-02-13T23:10:49;100006.78;;;0.17;100.00
28312;BME280;15572;48.810;9.148;2023-02-13T23:16:00;100006.97;;;0.14;100.00
28312;BME280;15572;48.810;9.148;2023-02-13T23:21:02;100006.19;;;0.12;100.00
28312;BME280;15572;48.810;9.148;2023-02-13T23:26:02;99993.06;;;0.09;100.00
28312;BME280;15572;48.810;9.148;2023-02-13T23:31:00;100007.59;;;0.03;100.00
28312;BME280;15572;48.810;9.148;2023-02-13T23:35:57;100003.47;;;-0.03;100.00
28312;BME280;15572;48.810;9.148;2023-02-13T23:40:53;99999.94;;;-0.03;100.00
28312;BME280;15572;48.810;9.148;2023-02-13T23:45:50;99997.38;;;-0.05;100.00
28312;BME280;15572;48.810;9.148;2023-02-13T23:50:48;99993.94;;;-0.07;100.00
28312;BME280;15572;48.810;9.148;2023-02-13T23:55:47;99984.22;;;-0.08;100.00
